Terminal Aerodrome Forecast
Issued by NWS

Home | Current Version | Previous Version | Text Only | Print | Product List | Glossary On
Versions: 1 2 3 4 5 6 7 8 9 10 11 12 13
000
FTUS45 KRIW 232300
TAFLND
TAF
KLND 232329Z 2400/2424 23015G25KT P6SM VCSH SCT100 BKN150
     FM240500 25007KT P6SM SCT120
     FM241900 24020G30KT P6SM FEW130=

USA.gov is the U.S. government's official web portal to all federal, state and local government web resources and services.